CheckWX is a tool to help pilots better visualize weather data.  It is not intended as a substitute for an official pre-flight weather briefing.

01:22:39 UTC

KGZH METAR
Evergreen Regional / Middleton Field Airport
Evergreen, Alabama, USA
Current

30 mins ago

KGZH 240053Z AUTO 19007KT 10SM CLR 14/06 A3020 RMK AO2 SLP227 T01440061
Observed
Mar-24 @ 00:53 UTC
Wind
  • 190° at 7 KTS
Visibility
10 SM
Flight Rules
VFR
Cloud Levels
  • Clear skies
Temperature
14°C / 57°F
Dewpoint
C / 43°F
Humidity
59%
Altimeter
30.2" Hg
Pressure
1022.7 hPa
Previous

1 hour ago

KGZH 232353Z AUTO 00000KT 10SM CLR 21/04 A3019 RMK AO2 SLP221 T02060044 10261 20206 53003
Observed
Mar-23 @ 23:53 UTC
Visibility
10 SM
Flight Rules
VFR
Cloud Levels
  • Clear skies
Temperature
21°C / 70°F
Dewpoint
C / 39°F
Humidity
33%
Altimeter
30.19" Hg
Pressure
1022.1 hPa
Previous

2 hours ago

KGZH 232253Z AUTO 14005KT 10SM CLR 25/00 A3018 RMK AO2 SLP217 T02500000
Observed
Mar-23 @ 22:53 UTC
Wind
  • 140° at 5 KTS
Visibility
10 SM
Flight Rules
VFR
Cloud Levels
  • Clear skies
Temperature
25°C / 77°F
Dewpoint
C / 32°F
Humidity
19%
Altimeter
30.18" Hg
Pressure
1021.7 hPa